createdAt,value
2019-05-06T00:00:04.726Z,5.23
2019-05-06T00:05:30.546Z,4.27
2019-05-06T00:10:55.089Z,5.10
2019-05-06T00:16:19.935Z,4.83
2019-05-06T00:21:44.349Z,4.53
2019-05-06T00:27:15.278Z,4.40
2019-05-06T00:32:39.448Z,5.20
2019-05-06T00:38:04.483Z,4.83
2019-05-06T00:43:29.846Z,4.37
2019-05-06T00:48:55.065Z,4.30
2019-05-06T00:54:21.572Z,5.83
2019-05-06T00:59:45.409Z,4.60
2019-05-06T01:05:10.511Z,4.83
2019-05-06T01:10:35.358Z,5.33
2019-05-06T01:15:59.646Z,5.27
2019-05-06T01:21:24.455Z,4.83
2019-05-06T01:26:48.936Z,5.77
2019-05-06T01:32:13.996Z,5.80
2019-05-06T01:37:39.923Z,5.57
2019-05-06T01:43:08.321Z,5.30
2019-05-06T01:48:47.805Z,5.70
2019-05-06T01:54:14.213Z,6.20
2019-05-06T01:59:37.513Z,5.63
2019-05-06T02:05:04.498Z,5.60
2019-05-06T02:10:28.632Z,5.40
2019-05-06T02:15:54.751Z,5.30
2019-05-06T02:21:38.365Z,5.90
2019-05-06T02:27:04.361Z,5.57
2019-05-06T02:32:36.089Z,5.23
2019-05-06T02:38:00.074Z,6.00
2019-05-06T02:43:23.770Z,5.87
2019-05-06T02:49:07.392Z,5.57
2019-05-06T02:54:34.531Z,5.33
2019-05-06T02:59:57.099Z,5.63
2019-05-06T03:05:23.706Z,6.53
2019-05-06T03:10:47.191Z,6.10
2019-05-06T03:16:14.134Z,6.00
2019-05-06T03:22:03.149Z,6.27
2019-05-06T03:27:26.510Z,6.70
2019-05-06T03:33:27.404Z,7.03
2019-05-06T03:38:16.487Z,6.90
2019-05-06T03:43:43.353Z,8.13
2019-05-06T03:49:06.813Z,7.23
2019-05-06T03:54:34.290Z,7.93
2019-05-06T04:00:00.113Z,8.60
2019-05-06T04:05:24.619Z,7.07
2019-05-06T04:10:53.800Z,7.97
2019-05-06T04:16:23.154Z,8.00
2019-05-06T04:21:58.599Z,8.07
2019-05-06T04:27:33.518Z,7.73
2019-05-06T04:32:58.669Z,8.30
2019-05-06T04:38:23.984Z,7.90
2019-05-06T04:43:48.390Z,7.53
2019-05-06T04:49:15.016Z,7.20
2019-05-06T04:54:39.660Z,6.93
2019-05-06T05:00:04.578Z,6.40
2019-05-06T05:05:32.846Z,6.50
2019-05-06T05:11:03.405Z,7.60
2019-05-06T05:16:33.181Z,6.33
2019-05-06T05:22:06.011Z,6.73
2019-05-06T05:27:32.918Z,6.13
2019-05-06T05:32:57.947Z,6.70
2019-05-06T05:38:22.907Z,5.87
2019-05-06T05:44:02.294Z,5.63
2019-05-06T05:49:45.974Z,6.10
2019-05-06T05:55:12.059Z,5.93
2019-05-06T06:00:36.896Z,6.17
2019-05-06T06:06:03.031Z,5.73
2019-05-06T06:11:32.868Z,4.33
2019-05-06T06:17:15.316Z,4.80
2019-05-06T06:22:39.294Z,4.63
2019-05-06T06:28:03.453Z,4.30
2019-05-06T06:33:28.315Z,4.37
2019-05-06T06:39:07.629Z,4.43
2019-05-06T06:44:33.760Z,4.37
2019-05-06T06:49:57.785Z,3.70
2019-05-06T06:55:22.848Z,3.77
2019-05-06T07:00:57.329Z,3.20
2019-05-06T07:06:39.307Z,4.00
2019-05-06T07:12:03.734Z,4.23
2019-05-06T07:17:28.847Z,4.53
2019-05-06T07:22:53.508Z,3.57
2019-05-06T07:28:17.172Z,4.50
2019-05-06T07:33:42.961Z,3.87
2019-05-06T07:39:08.007Z,3.63
2019-05-06T07:45:06.129Z,3.67
2019-05-06T07:50:26.284Z,3.83
2019-05-06T07:55:52.481Z,3.27
2019-05-06T08:01:16.644Z,3.57
2019-05-06T08:06:42.750Z,2.97
2019-05-06T08:12:06.641Z,3.63
2019-05-06T08:17:35.259Z,3.70
2019-05-06T08:23:07.185Z,3.33
2019-05-06T08:28:40.477Z,2.60
2019-05-06T08:33:57.820Z,3.27
2019-05-06T08:39:22.060Z,2.87
2019-05-06T08:44:47.627Z,2.80
2019-05-06T08:50:23.366Z,3.20
2019-05-06T08:55:47.795Z,2.60
2019-05-06T09:01:13.662Z,3.40
2019-05-06T09:06:37.673Z,2.33
2019-05-06T09:12:02.920Z,2.23
2019-05-06T09:17:27.538Z,2.63
2019-05-06T09:22:52.236Z,2.73
2019-05-06T09:28:26.566Z,3.03
2019-05-06T09:34:05.002Z,2.67
2019-05-06T09:39:29.107Z,2.30
2019-05-06T09:44:54.429Z,2.20
2019-05-06T09:50:46.730Z,2.90
2019-05-06T09:56:22.969Z,3.00
2019-05-06T10:01:46.224Z,2.50
2019-05-06T10:07:11.920Z,2.97
2019-05-06T10:12:37.172Z,2.60
2019-05-06T10:18:08.754Z,2.80
2019-05-06T10:23:32.867Z,2.13
2019-05-06T10:29:15.088Z,2.30
2019-05-06T10:34:39.086Z,3.13
2019-05-06T10:40:15.280Z,2.50
2019-05-06T10:45:39.703Z,2.40
2019-05-06T10:51:17.221Z,2.80
2019-05-06T10:57:06.132Z,2.90
2019-05-06T11:02:47.995Z,2.60
2019-05-06T11:08:11.471Z,2.87
2019-05-06T11:13:36.400Z,2.13
2019-05-06T11:19:02.186Z,2.60
2019-05-06T11:24:26.436Z,2.50
2019-05-06T11:29:53.070Z,3.27
2019-05-06T11:35:25.452Z,2.87
2019-05-06T11:40:49.724Z,2.27
2019-05-06T11:46:13.424Z,2.80
2019-05-06T11:51:38.050Z,2.92
2019-05-06T11:57:04.199Z,2.62
2019-05-06T12:02:28.829Z,2.20
2019-05-06T12:08:01.884Z,2.50
2019-05-06T12:13:18.452Z,2.37
2019-05-06T12:18:43.685Z,2.42
2019-05-06T12:24:07.533Z,2.40
2019-05-06T12:29:32.392Z,2.20
2019-05-06T12:34:57.830Z,2.10
2019-05-06T12:40:22.363Z,2.35
2019-05-06T12:45:47.489Z,2.45
2019-05-06T12:51:12.099Z,2.73
2019-05-06T12:56:36.843Z,2.60
2019-05-06T13:02:02.723Z,2.70
2019-05-06T13:07:37.472Z,2.40
2019-05-06T13:13:05.528Z,3.07
2019-05-06T13:18:32.150Z,2.90
2019-05-06T13:24:02.388Z,2.53
2019-05-06T13:29:28.942Z,2.53
2019-05-06T13:34:52.755Z,3.12
2019-05-06T13:40:17.779Z,2.50
2019-05-06T13:45:43.256Z,2.75
2019-05-06T13:51:12.422Z,2.55
2019-05-06T13:56:36.137Z,2.65
2019-05-06T14:02:08.652Z,2.62
2019-05-06T14:07:34.694Z,2.10
2019-05-06T14:12:59.196Z,2.40
2019-05-06T14:18:23.712Z,2.25
2019-05-06T14:23:47.386Z,2.40
2019-05-06T14:29:23.553Z,2.72
2019-05-06T14:34:47.876Z,2.37
2019-05-06T14:40:16.661Z,2.55
2019-05-06T14:45:42.311Z,2.60
2019-05-06T14:51:06.233Z,2.52
2019-05-06T14:56:42.975Z,2.60
2019-05-06T15:02:07.769Z,2.58
2019-05-06T15:07:33.031Z,2.62
2019-05-06T15:12:57.788Z,2.62
2019-05-06T15:18:22.461Z,2.40
2019-05-06T15:23:47.064Z,2.70
2019-05-06T15:29:12.648Z,2.83
2019-05-06T15:35:08.043Z,3.17
2019-05-06T15:40:36.393Z,3.20
2019-05-06T15:45:58.537Z,3.03
2019-05-06T15:51:34.442Z,3.40
2019-05-06T15:56:58.510Z,3.00
2019-05-06T16:02:23.347Z,3.57
2019-05-06T16:07:48.207Z,3.10
2019-05-06T16:13:13.027Z,3.80
2019-05-06T16:18:36.721Z,4.17
2019-05-06T16:24:09.135Z,4.17
2019-05-06T16:29:35.628Z,3.70
2019-05-06T16:34:59.723Z,3.50
2019-05-06T16:40:23.964Z,3.53
2019-05-06T16:45:48.474Z,3.00
2019-05-06T16:51:12.720Z,3.37
2019-05-06T16:56:44.703Z,6.33
2019-05-06T17:02:14.386Z,3.60
2019-05-06T17:07:39.038Z,3.87
2019-05-06T17:13:03.151Z,3.40
2019-05-06T17:18:27.798Z,3.13
2019-05-06T17:23:52.560Z,3.47
2019-05-06T17:29:24.151Z,3.47
2019-05-06T17:34:52.722Z,6.00
2019-05-06T17:40:18.176Z,3.90
2019-05-06T17:46:01.791Z,3.50
2019-05-06T17:51:42.638Z,3.93
2019-05-06T17:57:07.561Z,3.67
2019-05-06T18:02:32.630Z,4.40
2019-05-06T18:07:57.267Z,4.60
2019-05-06T18:13:21.972Z,4.37
2019-05-06T18:18:46.631Z,5.17
2019-05-06T18:24:12.934Z,6.70
2019-05-06T18:29:37.323Z,4.30
2019-05-06T18:35:02.623Z,4.77
2019-05-06T18:40:27.123Z,3.40
2019-05-06T18:45:53.015Z,3.57
2019-05-06T18:51:16.743Z,3.77
2019-05-06T18:56:42.754Z,3.20
2019-05-06T19:02:06.406Z,2.83
2019-05-06T19:07:33.275Z,3.13
2019-05-06T19:12:57.036Z,2.60
2019-05-06T19:18:22.468Z,2.70
2019-05-06T19:23:47.417Z,2.70
2019-05-06T19:29:12.259Z,2.60
2019-05-06T19:34:36.716Z,2.70
2019-05-06T19:40:02.698Z,2.73
2019-05-06T19:45:26.061Z,2.07
2019-05-06T19:50:52.224Z,2.20
2019-05-06T19:56:16.716Z,2.40
2019-05-06T20:01:42.781Z,3.40
2019-05-06T20:07:13.343Z,2.40
2019-05-06T20:12:40.653Z,2.63
2019-05-06T20:18:05.301Z,2.73
2019-05-06T20:23:30.304Z,2.70
2019-05-06T20:28:54.811Z,3.27
2019-05-06T20:34:19.703Z,3.03
2019-05-06T20:39:44.356Z,3.03
2019-05-06T20:45:09.115Z,3.20
2019-05-06T20:50:33.122Z,3.10
2019-05-06T20:55:56.894Z,3.90
2019-05-06T21:01:21.944Z,3.10
2019-05-06T21:06:46.144Z,3.37
2019-05-06T21:12:11.162Z,3.37
2019-05-06T21:17:35.043Z,3.10
2019-05-06T21:23:02.333Z,3.00
2019-05-06T21:28:26.048Z,3.80
2019-05-06T21:33:52.208Z,4.00
2019-05-06T21:39:16.034Z,3.43
2019-05-06T21:44:40.199Z,3.83
2019-05-06T21:50:05.604Z,3.83
2019-05-06T21:55:29.485Z,3.60
2019-05-06T22:01:02.357Z,3.53
2019-05-06T22:06:28.873Z,3.97
2019-05-06T22:11:53.383Z,4.47
2019-05-06T22:17:17.231Z,4.10
2019-05-06T22:22:42.588Z,4.17
2019-05-06T22:28:07.605Z,4.50
2019-05-06T22:33:32.527Z,4.97
2019-05-06T22:38:57.152Z,5.37
2019-05-06T22:44:22.812Z,4.57
2019-05-06T22:49:46.599Z,4.83
2019-05-06T22:55:12.998Z,4.47
2019-05-06T23:00:39.475Z,5.00
2019-05-06T23:06:03.938Z,4.87
2019-05-06T23:11:28.347Z,5.33
2019-05-06T23:16:52.469Z,5.10
2019-05-06T23:22:16.837Z,5.27
2019-05-06T23:27:43.856Z,4.93
2019-05-06T23:33:06.638Z,5.10
2019-05-06T23:39:07.997Z,4.90
2019-05-06T23:45:08.549Z,4.93
2019-05-06T23:51:08.618Z,5.50
2019-05-06T23:56:46.934Z,4.00
